Time;durP1;ratioP1;P1;durP2;ratioP2;P2;SDS_P1;SDS_P2;PMS_P1;PMS_P2;Temp;Humidity;BMP_temperature;BMP_pressure;BME280_temperature;BME280_humidity;BME280_pressure;Samples;Min_cycle;Max_cycle;Signal;HPM_P1;HPM_P2
2023/12/19 00:01:11;;;;;;;;;;;9.00;99.90;;;;;;5109786;27;20575;-76
2023/12/19 00:03:37;;;;;;;;;;;7.90;99.90;;;;;;5101849;27;19932;-76
2023/12/19 00:06:02;;;;;;;;;;;9.00;99.90;;;;;;5106884;27;20396;-76
2023/12/19 00:08:28;;;;;;;;;;;9.00;99.90;;;;;;5084443;27;19962;-75
2023/12/19 00:10:54;;;;;;;;;;;9.00;99.90;;;;;;5106281;27;19927;-76
2023/12/19 00:13:19;;;;;;;;;;;9.00;99.90;;;;;;5103362;27;19931;-76
2023/12/19 00:15:45;;;;;;;;;;;8.90;99.90;;;;;;5084008;27;19927;-75
2023/12/19 00:18:11;;;;;;;;;;;9.00;99.90;;;;;;5083683;27;19934;-76
2023/12/19 00:20:36;;;;;;;;;;;9.00;99.90;;;;;;5099811;27;20355;-76
2023/12/19 00:23:02;;;;;;;;;;;8.90;99.90;;;;;;5090503;27;19938;-76
2023/12/19 00:25:30;;;;;;;;;;;8.90;99.90;;;;;;5098027;27;19927;-76
2023/12/19 00:27:56;;;;;;;;;;;8.90;99.90;;;;;;5096777;27;20369;-76
2023/12/19 00:30:21;;;;;;;;;;;8.90;99.90;;;;;;5095057;27;19969;-76
2023/12/19 00:32:47;;;;;;;;;;;8.90;99.90;;;;;;5105179;27;19928;-76
2023/12/19 00:35:12;;;;;;;;;;;8.90;99.90;;;;;;5112604;27;20289;-76
2023/12/19 00:37:38;;;;;;;;;;;8.90;99.90;;;;;;5099855;27;19927;-76
2023/12/19 00:40:04;;;;;;;;;;;8.90;99.90;;;;;;5104685;27;20014;-76
2023/12/19 00:42:30;;;;;;;;;;;8.90;99.90;;;;;;5105307;27;19927;-76
2023/12/19 00:44:55;;;;;;;;;;;8.90;99.90;;;;;;5099471;27;20022;-76
2023/12/19 00:47:21;;;;;;;;;;;8.90;99.90;;;;;;5108613;27;19928;-76
2023/12/19 00:49:47;;;;;;;;;;;8.90;99.90;;;;;;5113667;27;19987;-76
2023/12/19 00:52:12;;;;;;;;;;;8.90;99.90;;;;;;5097229;27;19930;-77
2023/12/19 00:54:38;;;;;;;;;;;8.90;99.90;;;;;;5090387;27;20456;-76
2023/12/19 00:57:04;;;;;;;;;;;8.90;99.90;;;;;;5112102;27;20051;-76
2023/12/19 00:59:29;;;;;;;;;;;8.90;99.90;;;;;;5111444;27;19971;-76
2023/12/19 01:01:55;;;;;;;;;;;9.00;99.90;;;;;;5105933;27;19931;-76
2023/12/19 01:04:27;;;;;;;;;;;8.90;99.90;;;;;;5106227;27;19975;-77
2023/12/19 01:06:52;;;;;;;;;;;8.90;99.90;;;;;;5125127;27;19928;-77
2023/12/19 01:09:18;;;;;;;;;;;8.90;99.90;;;;;;5110330;27;20256;-77
2023/12/19 01:11:44;;;;;;;;;;;8.90;99.90;;;;;;5115627;27;19973;-77
2023/12/19 01:14:09;;;;;;;;;;;8.90;99.90;;;;;;5095903;27;19992;-76
2023/12/19 01:16:35;;;;;;;;;;;8.90;99.90;;;;;;5097444;27;19930;-76
2023/12/19 01:19:02;;;;;;;;;;;8.90;99.90;;;;;;5127171;27;20039;-76
2023/12/19 01:21:27;;;;;;;;;;;9.00;99.90;;;;;;5075864;27;19939;-77
2023/12/19 01:23:53;;;;;;;;;;;8.90;99.90;;;;;;5115260;27;19927;-76
2023/12/19 01:26:20;;;;;;;;;;;9.00;99.90;;;;;;5087924;27;19931;-77
2023/12/19 01:28:45;;;;;;;;;;;9.00;99.90;;;;;;5107057;27;20386;-76
2023/12/19 01:31:11;;;;;;;;;;;9.00;99.90;;;;;;5108255;27;19932;-76
2023/12/19 01:33:36;;;;;;;;;;;9.00;99.90;;;;;;5113201;27;20419;-76
2023/12/19 01:36:02;;;;;;;;;;;8.70;99.90;;;;;;5094729;27;20278;-76
2023/12/19 01:38:28;;;;;;;;;;;9.00;99.90;;;;;;5111940;27;19938;-75
2023/12/19 01:40:54;;;;;;;;;;;9.00;99.90;;;;;;5129809;27;19923;-76
2023/12/19 01:43:20;;;;;;;;;;;9.00;99.90;;;;;;5111070;27;21073;-75
2023/12/19 01:45:46;;;;;;;;;;;9.00;99.90;;;;;;5093239;27;20405;-76
2023/12/19 01:48:12;;;;;;;;;;;9.00;99.90;;;;;;5113269;27;20029;-76
2023/12/19 01:50:38;;;;;;;;;;;9.00;99.90;;;;;;5106001;27;20294;-76
2023/12/19 01:53:04;;;;;;;;;;;9.00;99.90;;;;;;5109841;27;19984;-76
2023/12/19 01:55:30;;;;;;;;;;;9.00;99.90;;;;;;5105512;27;19934;-77
2023/12/19 01:57:56;;;;;;;;;;;9.00;99.90;;;;;;5111759;27;19923;-77
2023/12/19 02:00:22;;;;;;;;;;;9.00;99.90;;;;;;5113100;27;19923;-76
2023/12/19 02:02:50;;;;;;;;;;;9.00;99.90;;;;;;5110112;27;20006;-77
2023/12/19 02:05:16;;;;;;;;;;;9.00;99.90;;;;;;5098439;27;19931;-77
2023/12/19 02:07:42;;;;;;;;;;;9.00;99.90;;;;;;5108541;27;20003;-77
2023/12/19 02:10:08;;;;;;;;;;;9.00;99.90;;;;;;5105293;27;19935;-76
2023/12/19 02:12:34;;;;;;;;;;;9.00;99.90;;;;;;5110027;27;19924;-76
2023/12/19 02:14:59;;;;;;;;;;;9.00;99.90;;;;;;5105329;27;20113;-76
2023/12/19 02:17:25;;;;;;;;;;;9.00;99.90;;;;;;5097891;27;19927;-76
2023/12/19 02:19:54;;;;;;;;;;;9.00;99.90;;;;;;5097990;27;19923;-77
2023/12/19 02:22:19;;;;;;;;;;;9.00;99.90;;;;;;5104335;27;19927;-76
2023/12/19 02:24:45;;;;;;;;;;;9.00;99.90;;;;;;5111856;27;19935;-77
2023/12/19 02:27:11;;;;;;;;;;;9.00;99.90;;;;;;5105183;27;20389;-77
2023/12/19 02:29:37;;;;;;;;;;;9.00;99.90;;;;;;5114714;27;19950;-76
2023/12/19 02:32:03;;;;;;;;;;;9.00;99.90;;;;;;5116318;27;19923;-76
2023/12/19 02:34:29;;;;;;;;;;;8.90;99.90;;;;;;5098489;27;19984;-76
2023/12/19 02:36:55;;;;;;;;;;;8.90;99.90;;;;;;5099235;27;19927;-77
2023/12/19 02:39:21;;;;;;;;;;;8.90;99.90;;;;;;5112400;27;20373;-77
2023/12/19 02:41:46;;;;;;;;;;;8.90;99.90;;;;;;5115226;27;19938;-76
2023/12/19 02:44:12;;;;;;;;;;;8.90;99.90;;;;;;5100133;27;19923;-77
2023/12/19 02:46:38;;;;;;;;;;;8.90;99.90;;;;;;5098729;27;20262;-76
2023/12/19 02:49:03;;;;;;;;;;;8.90;99.90;;;;;;5114065;27;19934;-76
2023/12/19 02:51:35;;;;;;;;;;;8.90;99.90;;;;;;5113880;27;20000;-77
2023/12/19 02:54:00;;;;;;;;;;;8.90;99.90;;;;;;5104862;27;19927;-77
2023/12/19 02:56:28;;;;;;;;;;;8.90;99.90;;;;;;5123790;27;19937;-77
2023/12/19 02:58:54;;;;;;;;;;;8.80;99.90;;;;;;5128932;27;19945;-76
2023/12/19 03:01:19;;;;;;;;;;;8.60;99.90;;;;;;5112491;27;19930;-77
2023/12/19 03:03:45;;;;;;;;;;;8.80;99.90;;;;;;5113807;27;19927;-77
2023/12/19 03:06:14;;;;;;;;;;;8.80;99.90;;;;;;5114767;27;19927;-77
2023/12/19 03:08:44;;;;;;;;;;;8.80;99.90;;;;;;5099081;27;19972;-77
2023/12/19 03:11:10;;;;;;;;;;;8.80;99.90;;;;;;5117428;27;19927;-77
2023/12/19 03:13:35;;;;;;;;;;;8.80;99.90;;;;;;5114717;27;19935;-76
2023/12/19 03:16:01;;;;;;;;;;;8.80;99.90;;;;;;5114133;27;19927;-77
2023/12/19 03:18:27;;;;;;;;;;;8.70;99.90;;;;;;5109654;27;19942;-77
2023/12/19 03:20:53;;;;;;;;;;;8.70;99.90;;;;;;5111142;27;19954;-77
2023/12/19 03:23:18;;;;;;;;;;;8.70;99.90;;;;;;5113005;27;19923;-77
2023/12/19 03:25:44;;;;;;;;;;;8.70;99.90;;;;;;5111860;27;20015;-77
2023/12/19 03:28:10;;;;;;;;;;;8.70;99.90;;;;;;5111779;27;19927;-78
2023/12/19 03:30:36;;;;;;;;;;;8.70;99.90;;;;;;5098225;27;19992;-77
2023/12/19 03:33:02;;;;;;;;;;;8.70;99.90;;;;;;5113967;27;19927;-78
2023/12/19 03:35:27;;;;;;;;;;;8.70;99.90;;;;;;5133009;27;19937;-78
2023/12/19 03:37:53;;;;;;;;;;;8.70;99.90;;;;;;5110716;27;19923;-79
2023/12/19 03:40:19;;;;;;;;;;;8.70;99.90;;;;;;5100645;27;20274;-79
2023/12/19 03:42:44;;;;;;;;;;;8.70;99.90;;;;;;5109956;27;19935;-77
2023/12/19 03:45:10;;;;;;;;;;;8.70;99.90;;;;;;5098391;27;20331;-77
2023/12/19 03:47:36;;;;;;;;;;;8.70;99.90;;;;;;5087926;27;19934;-78
2023/12/19 03:50:02;;;;;;;;;;;9.70;99.90;;;;;;5114495;27;19923;-78
2023/12/19 03:52:27;;;;;;;;;;;8.70;99.90;;;;;;5116898;27;19931;-77
2023/12/19 03:54:53;;;;;;;;;;;8.70;99.90;;;;;;5100190;27;20281;-77
2023/12/19 03:57:19;;;;;;;;;;;8.70;99.90;;;;;;5087585;27;20439;-78
2023/12/19 03:59:45;;;;;;;;;;;8.70;99.90;;;;;;5110140;27;19927;-77
2023/12/19 04:02:11;;;;;;;;;;;8.70;99.90;;;;;;5096360;27;19944;-77
2023/12/19 04:04:37;;;;;;;;;;;8.70;99.90;;;;;;5099513;27;20036;-77
2023/12/19 04:07:03;;;;;;;;;;;8.70;99.90;;;;;;5136422;27;19937;-77
2023/12/19 04:09:28;;;;;;;;;;;8.70;99.90;;;;;;5111721;27;19931;-78
2023/12/19 04:11:54;;;;;;;;;;;8.70;99.90;;;;;;5106448;27;19923;-78
2023/12/19 04:14:20;;;;;;;;;;;8.70;99.90;;;;;;5116151;27;19931;-78
2023/12/19 04:16:45;;;;;;;;;;;8.70;99.90;;;;;;5106713;27;20025;-78
2023/12/19 04:19:12;;;;;;;;;;;8.70;99.90;;;;;;5113896;27;19927;-78
2023/12/19 04:21:39;;;;;;;;;;;8.70;99.90;;;;;;5117436;27;19970;-78
2023/12/19 04:24:05;;;;;;;;;;;8.70;99.90;;;;;;5111722;27;19927;-78
2023/12/19 04:26:31;;;;;;;;;;;8.80;99.90;;;;;;5101432;27;20021;-78
2023/12/19 04:28:57;;;;;;;;;;;8.80;99.90;;;;;;5112075;27;19931;-79
2023/12/19 04:31:22;;;;;;;;;;;8.70;99.90;;;;;;5097942;27;20374;-79
2023/12/19 04:33:48;;;;;;;;;;;8.70;99.90;;;;;;5118570;27;19981;-79
2023/12/19 04:36:14;;;;;;;;;;;8.80;99.90;;;;;;5110085;27;19934;-79
2023/12/19 04:38:39;;;;;;;;;;;8.80;99.90;;;;;;5100823;27;19931;-79
2023/12/19 04:41:05;;;;;;;;;;;8.70;99.90;;;;;;5112547;27;19934;-78
2023/12/19 04:43:31;;;;;;;;;;;8.80;99.90;;;;;;5106840;27;20327;-78
2023/12/19 04:45:57;;;;;;;;;;;8.70;99.90;;;;;;5112040;27;19938;-77
2023/12/19 04:48:23;;;;;;;;;;;8.70;99.90;;;;;;5112046;27;19930;-78
2023/12/19 04:50:48;;;;;;;;;;;8.70;99.90;;;;;;5111201;27;19927;-77
2023/12/19 04:53:14;;;;;;;;;;;8.70;99.90;;;;;;5112251;27;19997;-77
2023/12/19 04:55:39;;;;;;;;;;;8.70;99.90;;;;;;5105768;27;19938;-76
2023/12/19 04:58:05;;;;;;;;;;;8.70;99.90;;;;;;5105664;27;19947;-77
2023/12/19 05:00:31;;;;;;;;;;;8.00;99.90;;;;;;5129339;27;20266;-77
2023/12/19 05:02:58;;;;;;;;;;;8.70;99.90;;;;;;5109915;27;19931;-77
2023/12/19 05:05:23;;;;;;;;;;;8.70;99.90;;;;;;5108689;27;20374;-77
2023/12/19 05:07:49;;;;;;;;;;;8.80;99.90;;;;;;5087996;27;19927;-78
2023/12/19 05:10:15;;;;;;;;;;;8.70;99.90;;;;;;5097809;27;19927;-77
2023/12/19 05:12:40;;;;;;;;;;;8.70;99.90;;;;;;5092152;27;19927;-77
2023/12/19 05:15:06;;;;;;;;;;;8.70;99.90;;;;;;5106290;27;19949;-78
2023/12/19 05:17:32;;;;;;;;;;;8.70;99.90;;;;;;5100692;27;19928;-79
2023/12/19 05:19:58;;;;;;;;;;;8.80;99.90;;;;;;5110938;27;20384;-79
2023/12/19 05:22:24;;;;;;;;;;;8.70;99.90;;;;;;5106466;27;19925;-80
2023/12/19 05:24:50;;;;;;;;;;;8.70;99.90;;;;;;5126384;27;19935;-79
2023/12/19 05:27:15;;;;;;;;;;;8.70;99.90;;;;;;5091915;27;19979;-78
2023/12/19 05:29:41;;;;;;;;;;;8.70;99.90;;;;;;5113508;27;21591;-78
2023/12/19 05:32:07;;;;;;;;;;;8.70;99.90;;;;;;5114461;27;20315;-78
2023/12/19 05:34:32;;;;;;;;;;;8.70;99.90;;;;;;5094735;27;20446;-78
2023/12/19 05:36:58;;;;;;;;;;;8.70;99.90;;;;;;5107676;27;19932;-79
2023/12/19 05:39:24;;;;;;;;;;;8.70;99.90;;;;;;5100399;27;19938;-78
2023/12/19 05:41:51;;;;;;;;;;;8.70;99.90;;;;;;5091461;27;19927;-78
2023/12/19 05:44:17;;;;;;;;;;;8.70;99.90;;;;;;5100574;27;19927;-78
2023/12/19 05:46:43;;;;;;;;;;;8.70;99.90;;;;;;5094595;27;19927;-79
2023/12/19 05:49:09;;;;;;;;;;;9.30;99.90;;;;;;5111494;27;19927;-78
2023/12/19 05:51:38;;;;;;;;;;;8.60;99.90;;;;;;5090881;27;19927;-79
2023/12/19 05:54:04;;;;;;;;;;;8.70;99.90;;;;;;5100209;27;19931;-79
2023/12/19 05:56:30;;;;;;;;;;;8.70;99.90;;;;;;5096086;27;20442;-79
2023/12/19 05:58:56;;;;;;;;;;;8.70;99.90;;;;;;5105220;27;19931;-79
2023/12/19 06:01:22;;;;;;;;;;;8.70;99.90;;;;;;5103557;27;19923;-79
2023/12/19 06:03:47;;;;;;;;;;;8.70;99.90;;;;;;5100864;27;19931;-78
2023/12/19 06:06:13;;;;;;;;;;;8.70;99.90;;;;;;5085189;27;19978;-78
2023/12/19 06:08:39;;;;;;;;;;;8.00;99.90;;;;;;5114913;27;19927;-79
2023/12/19 06:11:06;;;;;;;;;;;8.70;99.90;;;;;;5103661;27;19928;-80
2023/12/19 06:13:31;;;;;;;;;;;8.80;99.90;;;;;;5104508;27;19927;-79
2023/12/19 06:15:57;;;;;;;;;;;8.80;99.90;;;;;;5116206;27;19926;-79
2023/12/19 06:18:23;;;;;;;;;;;8.80;99.90;;;;;;5111127;27;19959;-78
2023/12/19 06:20:48;;;;;;;;;;;8.80;99.90;;;;;;5095615;27;19927;-79
2023/12/19 06:23:14;;;;;;;;;;;8.80;99.90;;;;;;5104557;27;19934;-78
2023/12/19 06:25:40;;;;;;;;;;;8.80;99.90;;;;;;5130917;27;19942;-78
2023/12/19 06:28:05;;;;;;;;;;;8.80;99.90;;;;;;5111511;27;19934;-78
2023/12/19 06:30:31;;;;;;;;;;;8.80;99.90;;;;;;5111434;27;19935;-78
2023/12/19 06:32:57;;;;;;;;;;;8.80;99.90;;;;;;5098850;27;19927;-78
2023/12/19 06:35:23;;;;;;;;;;;8.80;99.90;;;;;;5109513;27;19927;-78
2023/12/19 06:37:49;;;;;;;;;;;8.70;99.90;;;;;;5113373;27;19931;-78
2023/12/19 06:40:16;;;;;;;;;;;8.70;99.90;;;;;;5103996;27;19994;-78
2023/12/19 06:42:41;;;;;;;;;;;8.70;99.90;;;;;;5106166;27;20405;-79
2023/12/19 06:45:08;;;;;;;;;;;8.70;99.90;;;;;;5112352;27;19937;-78
2023/12/19 06:47:35;;;;;;;;;;;8.70;99.90;;;;;;5097785;27;20001;-77
2023/12/19 06:50:01;;;;;;;;;;;8.70;99.90;;;;;;5092525;27;19928;-77
2023/12/19 06:52:28;;;;;;;;;;;8.70;99.90;;;;;;5107191;27;20423;-78
2023/12/19 06:54:53;;;;;;;;;;;8.80;99.90;;;;;;5107996;27;20513;-77
2023/12/19 06:57:19;;;;;;;;;;;8.80;99.90;;;;;;5110830;27;19927;-78
2023/12/19 06:59:44;;;;;;;;;;;8.80;99.90;;;;;;5096094;27;19962;-78
2023/12/19 07:02:10;;;;;;;;;;;8.90;99.90;;;;;;5098002;27;19931;-78
2023/12/19 07:04:38;;;;;;;;;;;9.00;99.90;;;;;;5112924;27;21367;-78
2023/12/19 07:07:04;;;;;;;;;;;9.00;99.90;;;;;;5104110;27;19972;-78
2023/12/19 07:09:29;;;;;;;;;;;9.10;99.90;;;;;;5113649;27;19932;-78
2023/12/19 07:11:55;;;;;;;;;;;9.10;99.90;;;;;;5118978;27;20175;-79
2023/12/19 07:14:21;;;;;;;;;;;9.10;99.90;;;;;;5089648;27;20406;-78
2023/12/19 07:16:47;;;;;;;;;;;9.10;99.90;;;;;;5091212;27;20013;-78
2023/12/19 07:19:12;;;;;;;;;;;9.10;99.90;;;;;;5109797;27;19955;-78
2023/12/19 07:21:39;;;;;;;;;;;9.10;99.90;;;;;;5099874;27;19931;-79
2023/12/19 07:24:04;;;;;;;;;;;8.00;99.90;;;;;;5077627;27;22993;-78
2023/12/19 07:26:30;;;;;;;;;;;9.10;99.90;;;;;;5098404;27;19938;-78
2023/12/19 07:28:57;;;;;;;;;;;9.20;99.90;;;;;;5107149;27;19927;-78
2023/12/19 07:31:24;;;;;;;;;;;9.20;99.90;;;;;;5100753;27;20404;-78
2023/12/19 07:33:50;;;;;;;;;;;8.50;99.90;;;;;;5114812;27;19930;-78
2023/12/19 07:36:16;;;;;;;;;;;9.20;99.90;;;;;;5106193;27;19979;-78
2023/12/19 07:38:42;;;;;;;;;;;9.20;99.90;;;;;;5114511;27;20329;-77
2023/12/19 07:41:07;;;;;;;;;;;9.20;99.90;;;;;;5116283;27;19967;-78
2023/12/19 07:43:33;;;;;;;;;;;9.20;99.90;;;;;;5131063;27;20881;-77
2023/12/19 07:45:59;;;;;;;;;;;9.20;99.90;;;;;;5122179;27;19934;-77
2023/12/19 07:48:24;;;;;;;;;;;9.20;99.90;;;;;;5099414;27;20003;-77
2023/12/19 07:50:50;;;;;;;;;;;9.20;99.90;;;;;;5076954;27;19924;-77
2023/12/19 07:53:15;;;;;;;;;;;9.20;99.90;;;;;;5116054;27;20195;-77
2023/12/19 07:55:44;;;;;;;;;;;9.20;99.90;;;;;;5103716;27;19979;-77
2023/12/19 07:58:11;;;;;;;;;;;9.20;99.90;;;;;;5101896;27;19981;-77
2023/12/19 08:00:37;;;;;;;;;;;9.20;99.90;;;;;;5108121;27;19946;-77
2023/12/19 08:03:03;;;;;;;;;;;9.20;99.90;;;;;;5105992;27;19923;-78
2023/12/19 08:05:28;;;;;;;;;;;9.20;99.90;;;;;;5091456;27;19927;-78
2023/12/19 08:07:54;;;;;;;;;;;9.20;99.90;;;;;;5114531;27;19946;-77
2023/12/19 08:10:27;;;;;;;;;;;9.20;99.90;;;;;;5097963;27;19927;-77
2023/12/19 08:12:54;;;;;;;;;;;9.20;99.90;;;;;;5123950;27;20402;-78
2023/12/19 08:15:20;;;;;;;;;;;9.20;99.90;;;;;;5117861;27;19945;-78
2023/12/19 08:17:45;;;;;;;;;;;9.20;99.90;;;;;;5107648;27;20445;-77
2023/12/19 08:20:15;;;;;;;;;;;9.30;99.90;;;;;;5117172;27;19955;-78
2023/12/19 08:22:41;;;;;;;;;;;9.30;99.90;;;;;;5101233;27;20389;-78
2023/12/19 08:25:08;;;;;;;;;;;9.30;99.90;;;;;;5106293;27;19982;-78
2023/12/19 08:27:35;;;;;;;;;;;9.40;99.90;;;;;;5108621;27;19924;-78
2023/12/19 08:30:03;;;;;;;;;;;9.40;99.90;;;;;;5109459;27;19931;-78
2023/12/19 08:32:29;;;;;;;;;;;9.40;99.90;;;;;;5104013;27;19935;-78
2023/12/19 08:34:55;;;;;;;;;;;9.40;99.90;;;;;;5105214;27;19927;-77
2023/12/19 08:37:22;;;;;;;;;;;9.40;99.90;;;;;;5099529;27;19927;-77
2023/12/19 08:39:54;;;;;;;;;;;9.30;99.90;;;;;;5105763;27;19974;-77
2023/12/19 08:42:19;;;;;;;;;;;9.30;99.90;;;;;;5093332;27;19938;-78
2023/12/19 08:44:45;;;;;;;;;;;9.30;99.90;;;;;;5105512;27;19944;-77
2023/12/19 08:47:11;;;;;;;;;;;9.30;99.90;;;;;;5086945;27;19938;-77
2023/12/19 08:49:39;;;;;;;;;;;9.30;99.90;;;;;;5110383;27;20039;-77
2023/12/19 08:52:04;;;;;;;;;;;9.30;99.90;;;;;;5109996;27;20602;-77
2023/12/19 08:54:30;;;;;;;;;;;9.30;99.90;;;;;;5105517;27;19927;-77
2023/12/19 08:56:56;;;;;;;;;;;9.30;99.90;;;;;;5092024;27;20361;-77
2023/12/19 08:59:22;;;;;;;;;;;9.20;99.90;;;;;;5107321;27;19935;-77
2023/12/19 09:01:47;;;;;;;;;;;9.20;99.90;;;;;;5099496;27;19977;-78
2023/12/19 09:04:13;;;;;;;;;;;9.30;99.90;;;;;;5083779;27;19934;-76
2023/12/19 09:06:38;;;;;;;;;;;9.30;99.90;;;;;;5108456;27;19923;-77
2023/12/19 09:09:04;;;;;;;;;;;9.30;99.90;;;;;;5107705;27;21804;-77
2023/12/19 09:11:32;;;;;;;;;;;9.40;99.90;;;;;;5104021;27;19927;-77
2023/12/19 09:13:57;;;;;;;;;;;9.40;99.90;;;;;;5105166;27;19988;-78
2023/12/19 09:16:23;;;;;;;;;;;9.40;99.90;;;;;;5071011;27;19931;-77
2023/12/19 09:18:49;;;;;;;;;;;9.40;99.90;;;;;;5110877;27;20146;-78
2023/12/19 09:21:14;;;;;;;;;;;9.40;99.90;;;;;;5109464;27;19923;-78
2023/12/19 09:23:40;;;;;;;;;;;9.40;99.90;;;;;;5124022;27;20389;-78
2023/12/19 09:26:05;;;;;;;;;;;9.40;99.90;;;;;;5096879;27;19933;-77
2023/12/19 09:28:31;;;;;;;;;;;9.50;99.90;;;;;;5101683;27;19930;-77
2023/12/19 09:30:57;;;;;;;;;;;9.40;99.90;;;;;;5106732;27;19923;-77
2023/12/19 09:33:22;;;;;;;;;;;9.50;99.90;;;;;;5110549;27;19931;-77
2023/12/19 09:35:48;;;;;;;;;;;9.50;99.90;;;;;;5104319;27;20006;-77
2023/12/19 09:38:14;;;;;;;;;;;9.60;99.90;;;;;;5090201;27;19927;-78
2023/12/19 09:40:40;;;;;;;;;;;9.60;99.90;;;;;;5100518;27;19927;-79
2023/12/19 09:43:07;;;;;;;;;;;10.10;99.90;;;;;;5091507;27;19927;-77
2023/12/19 09:45:32;;;;;;;;;;;9.60;99.90;;;;;;5105331;27;19931;-77
2023/12/19 09:47:59;;;;;;;;;;;9.60;99.90;;;;;;5102334;27;19927;-77
2023/12/19 09:50:25;;;;;;;;;;;9.60;99.90;;;;;;5087338;27;19934;-76
2023/12/19 09:52:52;;;;;;;;;;;9.60;99.90;;;;;;5107981;27;20407;-77
2023/12/19 09:55:17;;;;;;;;;;;9.60;99.90;;;;;;5104567;27;19949;-77
2023/12/19 09:57:44;;;;;;;;;;;9.60;99.90;;;;;;5088628;27;19963;-77
2023/12/19 10:00:10;;;;;;;;;;;9.60;99.90;;;;;;5104479;27;19988;-77
2023/12/19 10:02:36;;;;;;;;;;;9.60;99.90;;;;;;5126234;27;19931;-77
2023/12/19 10:05:02;;;;;;;;;;;9.50;99.90;;;;;;5092196;27;19934;-77
2023/12/19 10:07:29;;;;;;;;;;;9.60;99.90;;;;;;5126174;27;19931;-77
2023/12/19 10:09:55;;;;;;;;;;;9.50;99.90;;;;;;5093196;27;20074;-77
2023/12/19 10:12:21;;;;;;;;;;;9.60;99.90;;;;;;5092694;27;19980;-77
2023/12/19 10:14:47;;;;;;;;;;;9.60;99.90;;;;;;5097624;27;19935;-76
2023/12/19 10:17:15;;;;;;;;;;;9.50;99.90;;;;;;5086540;27;19927;-78
2023/12/19 10:19:41;;;;;;;;;;;9.50;99.90;;;;;;5102786;27;20034;-77
2023/12/19 10:22:11;;;;;;;;;;;9.50;99.90;;;;;;5102285;27;19971;-76
2023/12/19 10:24:37;;;;;;;;;;;9.60;99.90;;;;;;5104253;27;20553;-77
2023/12/19 10:27:05;;;;;;;;;;;9.60;99.90;;;;;;5104907;27;20289;-78
2023/12/19 10:29:36;;;;;;;;;;;9.60;99.90;;;;;;5110937;27;20038;-77
2023/12/19 10:32:18;;;;;;;;;;;9.50;99.90;;;;;;5100201;27;19927;-77
2023/12/19 10:34:44;;;;;;;;;;;9.60;99.90;;;;;;5107750;27;20912;-77
2023/12/19 10:37:18;;;;;;;;;;;9.60;99.90;;;;;;5079990;27;20254;-76
2023/12/19 10:39:43;;;;;;;;;;;9.50;99.90;;;;;;5111734;27;19927;-76
2023/12/19 10:42:10;;;;;;;;;;;9.50;99.90;;;;;;5106283;27;20698;-76
2023/12/19 10:44:37;;;;;;;;;;;9.50;99.90;;;;;;5091196;27;19938;-77
2023/12/19 10:47:04;;;;;;;;;;;9.50;99.90;;;;;;5109024;27;19949;-76
2023/12/19 10:49:30;;;;;;;;;;;9.50;99.90;;;;;;5112015;27;20050;-77
2023/12/19 10:51:57;;;;;;;;;;;9.40;99.90;;;;;;5110880;27;20091;-76
2023/12/19 10:54:24;;;;;;;;;;;9.40;99.90;;;;;;5115927;27;19962;-76
2023/12/19 10:56:59;;;;;;;;;;;9.40;99.90;;;;;;5113980;27;19924;-77
2023/12/19 10:59:25;;;;;;;;;;;9.40;99.90;;;;;;5115890;27;20038;-77
2023/12/19 11:01:52;;;;;;;;;;;9.40;99.90;;;;;;5108012;27;19927;-77
2023/12/19 11:04:21;;;;;;;;;;;9.40;99.90;;;;;;5109660;27;20017;-77
2023/12/19 11:06:49;;;;;;;;;;;9.40;99.90;;;;;;5121569;27;19927;-79
2023/12/19 11:09:16;;;;;;;;;;;9.40;99.90;;;;;;5104240;27;19967;-77
2023/12/19 11:11:42;;;;;;;;;;;9.50;99.90;;;;;;5106366;27;20525;-76
2023/12/19 11:14:08;;;;;;;;;;;9.50;99.90;;;;;;5098032;27;20342;-77
2023/12/19 11:16:34;;;;;;;;;;;9.40;99.90;;;;;;5113342;27;19930;-78
2023/12/19 11:19:03;;;;;;;;;;;9.40;99.90;;;;;;5116828;27;19923;-77
2023/12/19 11:21:42;;;;;;;;;;;9.40;99.90;;;;;;5117115;27;19927;-77
2023/12/19 11:24:14;;;;;;;;;;;9.30;99.90;;;;;;5127794;27;19931;-78
2023/12/19 11:26:52;;;;;;;;;;;9.30;99.90;;;;;;5110369;27;19927;-77
2023/12/19 11:29:36;;;;;;;;;;;9.30;99.90;;;;;;5113318;27;19930;-77
2023/12/19 11:32:22;;;;;;;;;;;9.20;99.90;;;;;;5096018;27;19934;-77
2023/12/19 11:34:47;;;;;;;;;;;9.20;99.90;;;;;;5109293;27;20496;-76
2023/12/19 11:37:19;;;;;;;;;;;9.20;99.90;;;;;;5108063;27;19972;-77
2023/12/19 11:39:45;;;;;;;;;;;9.20;99.90;;;;;;5107540;27;19935;-77
2023/12/19 11:42:30;;;;;;;;;;;9.10;99.90;;;;;;5104443;27;19923;-78
2023/12/19 11:44:56;;;;;;;;;;;9.10;99.90;;;;;;5108767;27;19927;-77
2023/12/19 11:47:22;;;;;;;;;;;9.10;99.90;;;;;;5091052;27;20731;-78
2023/12/19 11:49:50;;;;;;;;;;;9.10;99.90;;;;;;5098047;27;19947;-77
2023/12/19 11:52:29;;;;;;;;;;;9.00;99.90;;;;;;5078401;27;19931;-77
2023/12/19 11:54:55;;;;;;;;;;;9.00;99.90;;;;;;5115905;27;19955;-78
2023/12/19 11:57:21;;;;;;;;;;;9.00;99.90;;;;;;5090429;27;20038;-78
2023/12/19 11:59:48;;;;;;;;;;;9.00;99.90;;;;;;5113633;27;19933;-77
2023/12/19 12:02:30;;;;;;;;;;;8.50;99.90;;;;;;5109566;27;20053;-78
2023/12/19 12:05:09;;;;;;;;;;;9.00;99.90;;;;;;5112169;27;20569;-77
2023/12/19 12:07:48;;;;;;;;;;;9.00;99.90;;;;;;5112399;27;19937;-78
2023/12/19 12:10:21;;;;;;;;;;;9.00;99.90;;;;;;5106025;27;19923;-77
2023/12/19 12:12:48;;;;;;;;;;;9.00;99.90;;;;;;5107446;27;20842;-77
2023/12/19 12:15:14;;;;;;;;;;;8.90;99.90;;;;;;5109982;27;19927;-77
2023/12/19 12:17:40;;;;;;;;;;;8.90;99.90;;;;;;5099232;27;20382;-77
2023/12/19 12:20:12;;;;;;;;;;;8.90;99.90;;;;;;5108731;27;19928;-77
2023/12/19 12:22:38;;;;;;;;;;;8.90;99.90;;;;;;5096290;27;20062;-77
2023/12/19 12:25:04;;;;;;;;;;;8.90;99.90;;;;;;5107577;27;19999;-77
2023/12/19 12:27:30;;;;;;;;;;;8.90;99.90;;;;;;5100178;27;19932;-77
2023/12/19 12:29:56;;;;;;;;;;;8.90;99.90;;;;;;5093258;27;19923;-77
2023/12/19 12:32:25;;;;;;;;;;;8.90;99.90;;;;;;5110404;27;19927;-77
2023/12/19 12:34:50;;;;;;;;;;;8.90;99.90;;;;;;5096963;27;19927;-76
2023/12/19 12:37:17;;;;;;;;;;;8.80;99.90;;;;;;5081086;27;19968;-77
2023/12/19 12:39:43;;;;;;;;;;;8.80;99.90;;;;;;5103642;27;20354;-77
2023/12/19 12:42:08;;;;;;;;;;;8.80;99.90;;;;;;5095260;27;19927;-77
2023/12/19 12:44:35;;;;;;;;;;;8.80;99.90;;;;;;5105862;27;19931;-77
2023/12/19 12:47:00;;;;;;;;;;;8.80;99.90;;;;;;5105712;27;19927;-76
2023/12/19 12:49:29;;;;;;;;;;;8.80;99.90;;;;;;5098710;27;20233;-78
2023/12/19 12:51:55;;;;;;;;;;;8.80;99.90;;;;;;5100221;27;19931;-78
2023/12/19 12:54:22;;;;;;;;;;;8.80;99.90;;;;;;5111622;27;19931;-78
2023/12/19 12:56:48;;;;;;;;;;;8.80;99.90;;;;;;5093546;27;19927;-77
2023/12/19 12:59:15;;;;;;;;;;;8.80;99.90;;;;;;5109129;27;20082;-78
2023/12/19 13:01:42;;;;;;;;;;;8.70;99.90;;;;;;5111258;27;19966;-78
2023/12/19 13:04:09;;;;;;;;;;;8.70;99.90;;;;;;5104842;27;19950;-78
2023/12/19 13:06:35;;;;;;;;;;;8.70;99.90;;;;;;5127156;27;19931;-78
2023/12/19 13:09:01;;;;;;;;;;;8.70;99.90;;;;;;5113978;27;19966;-79
2023/12/19 13:11:26;;;;;;;;;;;8.70;99.90;;;;;;5091336;27;19927;-78
2023/12/19 13:13:52;;;;;;;;;;;8.60;99.90;;;;;;5098052;27;19927;-78
2023/12/19 13:16:18;;;;;;;;;;;8.60;99.90;;;;;;5100043;27;20313;-78
2023/12/19 13:18:44;;;;;;;;;;;8.60;99.90;;;;;;5101086;27;20050;-78
2023/12/19 13:21:11;;;;;;;;;;;8.70;99.90;;;;;;5094926;27;20015;-78
2023/12/19 13:23:36;;;;;;;;;;;8.70;99.90;;;;;;5096378;27;19924;-78
2023/12/19 13:26:02;;;;;;;;;;;8.60;99.90;;;;;;5108905;27;19927;-78
2023/12/19 13:28:28;;;;;;;;;;;8.70;99.90;;;;;;5106401;27;19984;-78
2023/12/19 13:30:54;;;;;;;;;;;8.70;99.90;;;;;;5107054;27;20290;-78
2023/12/19 13:33:21;;;;;;;;;;;8.70;99.90;;;;;;5106037;27;19923;-78
2023/12/19 13:35:47;;;;;;;;;;;8.70;99.90;;;;;;5081690;27;20280;-78
2023/12/19 13:38:13;;;;;;;;;;;8.70;99.90;;;;;;5094436;27;19931;-78
2023/12/19 13:40:39;;;;;;;;;;;8.80;99.90;;;;;;5127396;27;19927;-78
2023/12/19 13:43:05;;;;;;;;;;;8.80;99.90;;;;;;5108079;27;20053;-78
2023/12/19 13:45:32;;;;;;;;;;;8.80;99.90;;;;;;5105796;27;19976;-78
2023/12/19 13:48:01;;;;;;;;;;;8.80;99.90;;;;;;5104469;27;19991;-77
2023/12/19 13:50:27;;;;;;;;;;;8.80;99.90;;;;;;5126175;27;19980;-78
2023/12/19 13:52:53;;;;;;;;;;;8.80;99.90;;;;;;5111131;27;19934;-77
2023/12/19 13:55:19;;;;;;;;;;;8.80;99.90;;;;;;5105914;27;19927;-77
2023/12/19 13:57:44;;;;;;;;;;;8.80;99.90;;;;;;5096097;27;20286;-77
2023/12/19 14:00:14;;;;;;;;;;;8.80;99.90;;;;;;5103154;27;20834;-77
2023/12/19 14:02:40;;;;;;;;;;;8.80;99.90;;;;;;5086074;27;21075;-77
2023/12/19 14:05:09;;;;;;;;;;;8.80;99.90;;;;;;5115124;27;20342;-77
2023/12/19 14:07:35;;;;;;;;;;;8.80;99.90;;;;;;5109805;27;19967;-78
2023/12/19 14:10:01;;;;;;;;;;;8.80;99.90;;;;;;5091659;27;19951;-77
2023/12/19 14:12:28;;;;;;;;;;;8.80;99.90;;;;;;5129925;27;19941;-77
2023/12/19 14:14:54;;;;;;;;;;;8.80;99.90;;;;;;5109156;27;19941;-77
2023/12/19 14:17:19;;;;;;;;;;;8.80;99.90;;;;;;5098313;27;19956;-77
2023/12/19 14:19:45;;;;;;;;;;;8.80;99.90;;;;;;5072030;27;19927;-76
2023/12/19 14:22:11;;;;;;;;;;;8.70;99.90;;;;;;5095279;27;19931;-77
2023/12/19 14:24:37;;;;;;;;;;;8.70;99.90;;;;;;5097820;27;19928;-77
2023/12/19 14:27:03;;;;;;;;;;;8.70;99.90;;;;;;5108649;27;19935;-77